createdAt,value
2019-04-06T00:02:33.399Z,63.35
2019-04-06T00:05:22.769Z,63.28
2019-04-06T00:08:12.811Z,63.33
2019-04-06T00:11:02.557Z,63.33
2019-04-06T00:13:52.152Z,63.37
2019-04-06T00:16:41.513Z,63.47
2019-04-06T00:19:31.181Z,63.42
2019-04-06T00:22:20.327Z,63.44
2019-04-06T00:25:11.554Z,63.47
2019-04-06T00:28:00.799Z,63.42
2019-04-06T00:31:13.530Z,63.51
2019-04-06T00:34:02.945Z,63.51
2019-04-06T00:36:52.963Z,63.62
2019-04-06T00:39:42.146Z,63.63
2019-04-06T00:42:31.605Z,63.68
2019-04-06T00:45:21.452Z,63.71
2019-04-06T00:48:11.237Z,63.74
2019-04-06T00:51:01.056Z,63.73
2019-04-06T00:53:50.079Z,63.72
2019-04-06T00:56:40.138Z,63.79
2019-04-06T00:59:30.060Z,63.71
2019-04-06T01:02:20.248Z,63.79
2019-04-06T01:05:09.219Z,63.94
2019-04-06T01:07:58.837Z,63.94
2019-04-06T01:10:48.513Z,63.98
2019-04-06T01:13:38.292Z,64.17
2019-04-06T01:16:28.106Z,64.04
2019-04-06T01:19:18.260Z,64.04
2019-04-06T01:22:07.415Z,64.07
2019-04-06T01:24:57.113Z,64.02
2019-04-06T01:27:46.780Z,64.03
2019-04-06T01:30:35.927Z,63.99
2019-04-06T01:33:25.516Z,63.97
2019-04-06T01:36:14.910Z,64.04
2019-04-06T01:39:05.728Z,64.01
2019-04-06T01:41:55.516Z,64.07
2019-04-06T01:44:44.899Z,64.12
2019-04-06T01:47:34.371Z,64.08
2019-04-06T01:50:23.765Z,64.04
2019-04-06T01:53:12.624Z,64.14
2019-04-06T01:56:03.046Z,64.20
2019-04-06T01:58:52.200Z,64.20
2019-04-06T02:01:53.416Z,64.23
2019-04-06T02:04:42.529Z,64.23
2019-04-06T02:07:32.216Z,64.23
2019-04-06T02:10:21.979Z,64.25
2019-04-06T02:13:11.607Z,64.28
2019-04-06T02:16:01.778Z,64.33
2019-04-06T02:18:50.859Z,64.36
2019-04-06T02:21:40.389Z,64.38
2019-04-06T02:24:30.402Z,64.36
2019-04-06T02:27:20.120Z,64.56
2019-04-06T02:30:24.529Z,64.56
2019-04-06T02:33:39.423Z,64.58
2019-04-06T02:37:02.518Z,64.68
2019-04-06T02:39:59.527Z,65.01
2019-04-06T02:42:52.381Z,64.90
2019-04-06T02:45:41.952Z,64.93
2019-04-06T02:48:30.732Z,64.87
2019-04-06T02:51:19.963Z,64.89
2019-04-06T02:54:09.621Z,64.95
2019-04-06T02:56:59.483Z,64.92
2019-04-06T02:59:48.923Z,64.94
2019-04-06T03:02:38.874Z,65.13
2019-04-06T03:05:28.365Z,64.90
2019-04-06T03:08:17.492Z,64.96
2019-04-06T03:11:07.363Z,64.92
2019-04-06T03:13:56.599Z,64.85
2019-04-06T03:16:45.741Z,64.92
2019-04-06T03:19:35.067Z,64.91
2019-04-06T03:22:24.632Z,64.93
2019-04-06T03:25:14.585Z,64.87
2019-04-06T03:28:03.778Z,64.99
2019-04-06T03:30:53.513Z,64.99
2019-04-06T03:33:43.253Z,64.99
2019-04-06T03:36:32.955Z,64.93
2019-04-06T03:39:23.080Z,64.92
2019-04-06T03:42:12.024Z,64.93
2019-04-06T03:45:01.768Z,65.14
2019-04-06T03:47:51.476Z,65.04
2019-04-06T03:50:41.106Z,64.97
2019-04-06T03:53:30.773Z,65.04
2019-04-06T03:56:19.726Z,65.04
2019-04-06T03:59:09.136Z,65.07
2019-04-06T04:01:57.893Z,65.19
2019-04-06T04:04:47.651Z,65.08
2019-04-06T04:07:36.729Z,65.11
2019-04-06T04:10:41.138Z,65.17
2019-04-06T04:13:30.796Z,65.20
2019-04-06T04:16:20.735Z,65.24
2019-04-06T04:19:10.529Z,65.35
2019-04-06T04:21:59.929Z,65.44
2019-04-06T04:24:49.267Z,65.37
2019-04-06T04:27:40.803Z,65.35
2019-04-06T04:30:33.113Z,65.35
2019-04-06T04:33:20.831Z,65.27
2019-04-06T04:36:10.196Z,65.35
2019-04-06T04:39:00.020Z,65.39
2019-04-06T04:41:48.873Z,65.39
2019-04-06T04:44:37.673Z,65.32
2019-04-06T04:47:27.003Z,65.33
2019-04-06T04:50:16.452Z,65.38
2019-04-06T04:53:06.034Z,65.50
2019-04-06T04:55:55.546Z,65.43
2019-04-06T04:58:45.081Z,65.61
2019-04-06T05:01:34.259Z,65.58
2019-04-06T05:04:24.587Z,65.57
2019-04-06T05:07:14.296Z,65.55
2019-04-06T05:10:03.796Z,65.65
2019-04-06T05:12:53.743Z,65.54
2019-04-06T05:16:11.644Z,65.68
2019-04-06T05:18:59.963Z,65.67
2019-04-06T05:21:49.356Z,65.59
2019-04-06T05:24:38.154Z,65.58
2019-04-06T05:27:27.617Z,65.59
2019-04-06T05:30:17.023Z,65.61
2019-04-06T05:33:05.745Z,65.82
2019-04-06T05:35:55.458Z,65.74
2019-04-06T05:38:44.686Z,65.69
2019-04-06T05:41:33.614Z,65.76
2019-04-06T05:44:23.359Z,65.72
2019-04-06T05:47:13.358Z,65.70
2019-04-06T05:50:02.581Z,65.74
2019-04-06T05:52:52.219Z,65.71
2019-04-06T05:55:41.139Z,65.68
2019-04-06T05:58:30.874Z,65.92
2019-04-06T06:01:20.261Z,65.92
2019-04-06T06:04:10.791Z,66.09
2019-04-06T06:07:01.495Z,65.94
2019-04-06T06:09:50.777Z,65.99
2019-04-06T06:12:40.270Z,65.99
2019-04-06T06:15:29.039Z,66.33
2019-04-06T06:18:26.382Z,66.12
2019-04-06T06:21:09.545Z,66.06
2019-04-06T06:23:59.065Z,66.12
2019-04-06T06:26:48.537Z,66.17
2019-04-06T06:29:37.813Z,66.12
2019-04-06T06:32:27.694Z,66.15
2019-04-06T06:35:16.960Z,66.20
2019-04-06T06:38:06.636Z,66.21
2019-04-06T06:40:57.848Z,66.13
2019-04-06T06:43:47.107Z,66.20
2019-04-06T06:46:36.578Z,66.14
2019-04-06T06:49:25.713Z,66.09
2019-04-06T06:52:14.931Z,66.18
2019-04-06T06:55:04.507Z,66.13
2019-04-06T06:57:53.872Z,66.14
2019-04-06T07:00:44.089Z,66.05
2019-04-06T07:03:32.868Z,66.17
2019-04-06T07:06:22.795Z,66.19
2019-04-06T07:09:12.111Z,66.33
2019-04-06T07:12:02.052Z,67.73
2019-04-06T07:14:51.063Z,67.29
2019-04-06T07:17:40.148Z,67.47
2019-04-06T07:20:29.253Z,67.14
2019-04-06T07:23:18.825Z,66.84
2019-04-06T07:26:07.564Z,66.70
2019-04-06T07:28:56.927Z,66.70
2019-04-06T07:31:47.556Z,66.68
2019-04-06T07:34:37.357Z,66.48
2019-04-06T07:37:27.004Z,66.52
2019-04-06T07:40:17.222Z,66.58
2019-04-06T07:43:06.419Z,66.37
2019-04-06T07:45:56.001Z,66.48
2019-04-06T07:48:46.490Z,66.60
2019-04-06T07:51:35.770Z,66.78
2019-04-06T07:54:24.907Z,67.08
2019-04-06T07:57:14.439Z,67.13
2019-04-06T08:00:04.627Z,66.81
2019-04-06T08:02:53.914Z,66.79
2019-04-06T08:05:43.198Z,67.07
2019-04-06T08:08:32.949Z,67.65
2019-04-06T08:11:22.085Z,68.61
2019-04-06T08:14:11.039Z,67.61
2019-04-06T08:17:00.955Z,67.98
2019-04-06T08:19:50.933Z,69.47
2019-04-06T08:22:40.608Z,68.41
2019-04-06T08:25:30.191Z,69.15
2019-04-06T08:28:19.831Z,68.63
2019-04-06T08:31:09.186Z,68.96
2019-04-06T08:34:00.376Z,70.07
2019-04-06T08:36:50.197Z,69.53
2019-04-06T08:39:40.714Z,69.29
2019-04-06T08:42:30.862Z,69.72
2019-04-06T08:45:20.062Z,69.31
2019-04-06T08:48:10.177Z,69.16
2019-04-06T08:51:01.123Z,69.52
2019-04-06T08:53:50.503Z,69.53
2019-04-06T08:56:39.876Z,69.69
2019-04-06T08:59:30.838Z,69.10
2019-04-06T09:02:20.357Z,69.20
2019-04-06T09:05:11.204Z,69.00
2019-04-06T09:08:01.339Z,68.85
2019-04-06T09:10:50.872Z,69.03
2019-04-06T09:13:40.557Z,68.81
2019-04-06T09:16:29.849Z,68.85
2019-04-06T09:19:20.314Z,68.49
2019-04-06T09:22:12.365Z,68.68
2019-04-06T09:25:04.633Z,68.50
2019-04-06T09:27:54.519Z,68.54
2019-04-06T09:30:44.050Z,68.16
2019-04-06T09:33:33.720Z,67.69
2019-04-06T09:36:23.863Z,67.94
2019-04-06T09:39:14.008Z,68.79
2019-04-06T09:42:03.147Z,68.26
2019-04-06T09:44:59.079Z,67.64
2019-04-06T09:48:05.911Z,67.40
2019-04-06T09:51:32.012Z,68.46
2019-04-06T09:54:29.114Z,68.21
2019-04-06T09:57:36.625Z,67.81
2019-04-06T10:00:40.813Z,67.86
2019-04-06T10:03:51.597Z,67.90
2019-04-06T10:07:03.374Z,67.73
2019-04-06T10:10:17.186Z,67.73
2019-04-06T10:13:15.533Z,67.30
2019-04-06T10:16:13.178Z,67.08
2019-04-06T10:19:33.647Z,67.48
2019-04-06T10:22:41.653Z,67.08
2019-04-06T10:25:49.489Z,67.60
2019-04-06T10:28:51.824Z,67.30
2019-04-06T10:32:00.171Z,67.49
2019-04-06T10:35:18.042Z,67.34
2019-04-06T10:38:35.739Z,66.80
2019-04-06T10:41:30.181Z,66.56
2019-04-06T10:44:37.219Z,66.44
2019-04-06T10:47:47.063Z,66.23
2019-04-06T10:50:45.627Z,66.12
2019-04-06T10:54:00.148Z,65.52
2019-04-06T10:57:09.396Z,65.16
2019-04-06T11:00:07.825Z,64.98
2019-04-06T11:03:12.715Z,64.74
2019-04-06T11:06:08.290Z,64.92
2019-04-06T11:09:15.224Z,64.42
2019-04-06T11:12:35.704Z,64.00
2019-04-06T11:15:57.232Z,64.14
2019-04-06T11:19:11.931Z,63.89
2019-04-06T11:22:17.572Z,63.23
2019-04-06T11:25:14.181Z,63.10
2019-04-06T11:28:28.718Z,62.38
2019-04-06T11:31:37.978Z,62.01
2019-04-06T11:34:45.837Z,61.26
2019-04-06T11:37:52.997Z,61.08
2019-04-06T11:40:51.170Z,60.65
2019-04-06T11:43:45.942Z,60.05
2019-04-06T11:46:52.828Z,59.46
2019-04-06T11:50:10.206Z,58.96
2019-04-06T11:53:20.600Z,58.38
2019-04-06T11:56:25.047Z,57.30
2019-04-06T11:59:21.792Z,56.53
2019-04-06T12:02:22.399Z,56.38
2019-04-06T12:05:25.184Z,56.23
2019-04-06T12:08:33.632Z,56.31
2019-04-06T12:11:39.605Z,56.30
2019-04-06T12:14:36.101Z,56.08
2019-04-06T12:17:39.417Z,55.57
2019-04-06T12:20:38.303Z,55.50
2019-04-06T12:23:45.334Z,55.26
2019-04-06T12:26:42.272Z,55.47
2019-04-06T12:30:09.095Z,55.23
2019-04-06T12:33:24.961Z,55.06
2019-04-06T12:36:25.100Z,55.29
2019-04-06T12:39:34.016Z,55.31
2019-04-06T12:42:45.948Z,55.03
2019-04-06T12:45:52.694Z,55.29
2019-04-06T12:49:01.567Z,54.61
2019-04-06T12:52:27.508Z,54.48
2019-04-06T12:55:31.443Z,54.66
2019-04-06T12:58:31.514Z,54.88
2019-04-06T13:01:43.308Z,54.35
2019-04-06T13:04:52.191Z,55.11
2019-04-06T13:08:12.453Z,54.84
2019-04-06T13:11:14.315Z,54.70
2019-04-06T13:14:23.914Z,55.20
2019-04-06T13:17:30.139Z,54.55
2019-04-06T13:20:31.202Z,54.97
2019-04-06T13:23:38.765Z,55.04
2019-04-06T13:26:53.426Z,55.16
2019-04-06T13:30:00.860Z,55.17
2019-04-06T13:33:09.252Z,54.69
2019-04-06T13:36:17.109Z,55.02
2019-04-06T13:39:24.966Z,54.84
2019-04-06T13:42:24.863Z,53.82
2019-04-06T13:45:26.856Z,54.25
2019-04-06T13:48:48.189Z,54.67
2019-04-06T13:51:48.541Z,54.34
2019-04-06T13:54:56.807Z,53.64
2019-04-06T13:58:03.762Z,53.77
2019-04-06T14:01:13.613Z,53.46
2019-04-06T14:04:13.500Z,53.36
2019-04-06T14:07:11.334Z,52.94
2019-04-06T14:10:34.275Z,52.91
2019-04-06T14:13:31.274Z,52.70
2019-04-06T14:16:30.999Z,52.90
2019-04-06T14:19:34.381Z,52.89
2019-04-06T14:22:30.828Z,52.87
2019-04-06T14:25:37.883Z,53.60
2019-04-06T14:28:45.343Z,53.94
2019-04-06T14:31:52.748Z,53.65
2019-04-06T14:35:10.860Z,53.43
2019-04-06T14:38:18.698Z,52.10
2019-04-06T14:41:25.483Z,52.59
2019-04-06T14:44:42.875Z,53.72
2019-04-06T14:47:51.221Z,53.46
2019-04-06T14:50:55.494Z,53.13
2019-04-06T14:53:57.013Z,53.41
2019-04-06T14:56:59.468Z,53.08
2019-04-06T14:59:57.166Z,53.46
2019-04-06T15:03:06.165Z,53.88
2019-04-06T15:06:12.987Z,54.12
2019-04-06T15:09:27.949Z,52.61
2019-04-06T15:12:35.814Z,52.42
2019-04-06T15:15:56.660Z,53.43
2019-04-06T15:19:10.495Z,53.91
2019-04-06T15:22:18.941Z,53.56
2019-04-06T15:25:21.478Z,53.43
2019-04-06T15:28:21.323Z,53.38
2019-04-06T15:31:29.073Z,53.08
2019-04-06T15:34:36.118Z,52.66
2019-04-06T15:37:36.537Z,53.87
2019-04-06T15:40:44.506Z,53.97
2019-04-06T15:43:47.435Z,53.24
2019-04-06T15:46:52.445Z,53.07
2019-04-06T15:50:13.056Z,52.96
2019-04-06T15:53:16.634Z,52.40
2019-04-06T15:56:28.131Z,53.45
2019-04-06T15:59:23.334Z,53.44
2019-04-06T16:02:31.311Z,54.76
2019-04-06T16:05:39.021Z,55.11
2019-04-06T16:08:50.077Z,54.86
2019-04-06T16:11:59.157Z,54.96
2019-04-06T16:15:01.380Z,55.31
2019-04-06T16:18:13.223Z,53.89
2019-04-06T16:21:33.546Z,51.47
2019-04-06T16:24:33.537Z,51.43
2019-04-06T16:27:35.594Z,52.10
2019-04-06T16:30:44.747Z,52.23
2019-04-06T16:33:43.722Z,52.48
2019-04-06T16:36:59.180Z,52.96
2019-04-06T16:40:06.226Z,53.36
2019-04-06T16:43:01.067Z,53.67
2019-04-06T16:46:10.445Z,53.21
2019-04-06T16:49:07.688Z,53.36
2019-04-06T16:52:09.139Z,53.36
2019-04-06T16:55:16.633Z,53.53
2019-04-06T16:58:15.434Z,53.61
2019-04-06T17:01:22.842Z,53.44
2019-04-06T17:04:29.816Z,53.98
2019-04-06T17:07:44.161Z,53.79
2019-04-06T17:10:47.295Z,54.05
2019-04-06T17:13:48.545Z,54.50
2019-04-06T17:16:56.029Z,54.62
2019-04-06T17:19:55.174Z,54.79
2019-04-06T17:23:04.352Z,55.23
2019-04-06T17:26:12.811Z,55.57
2019-04-06T17:29:15.483Z,55.40
2019-04-06T17:32:15.118Z,55.81
2019-04-06T17:35:29.078Z,56.22
2019-04-06T17:38:30.554Z,56.80
2019-04-06T17:41:45.320Z,57.08
2019-04-06T17:45:00.219Z,57.50
2019-04-06T17:48:09.316Z,57.90
2019-04-06T17:51:10.170Z,57.85
2019-04-06T17:54:14.621Z,58.37
2019-04-06T17:57:23.395Z,58.78
2019-04-06T18:00:37.932Z,59.14
2019-04-06T18:03:59.897Z,59.51
2019-04-06T18:07:21.566Z,59.67
2019-04-06T18:10:18.516Z,59.85
2019-04-06T18:13:16.251Z,60.40
2019-04-06T18:16:07.181Z,60.71
2019-04-06T18:18:56.509Z,60.79
2019-04-06T18:21:49.158Z,60.48
2019-04-06T18:24:39.496Z,60.72
2019-04-06T18:27:29.884Z,60.77
2019-04-06T18:30:21.294Z,60.75
2019-04-06T18:33:17.685Z,60.81
2019-04-06T18:36:07.359Z,61.02
2019-04-06T18:39:01.744Z,61.04
2019-04-06T18:41:55.167Z,61.15
2019-04-06T18:44:48.624Z,61.27
2019-04-06T18:47:38.173Z,61.45
2019-04-06T18:50:35.984Z,61.50
2019-04-06T18:53:22.718Z,61.63
2019-04-06T18:56:14.095Z,61.74
2019-04-06T18:59:05.284Z,61.79
2019-04-06T19:01:55.407Z,61.93
2019-04-06T19:04:47.617Z,61.99
2019-04-06T19:07:37.106Z,62.13
2019-04-06T19:10:34.251Z,62.20
2019-04-06T19:13:24.069Z,62.30
2019-04-06T19:16:14.345Z,62.40
2019-04-06T19:19:06.215Z,62.52
2019-04-06T19:21:55.656Z,62.55
2019-04-06T19:24:48.104Z,62.68
2019-04-06T19:27:40.680Z,62.75
2019-04-06T19:30:30.624Z,62.85
2019-04-06T19:33:25.075Z,62.97
2019-04-06T19:36:14.712Z,63.03
2019-04-06T19:39:06.983Z,63.09
2019-04-06T19:41:59.721Z,63.12
2019-04-06T19:44:53.624Z,63.27
2019-04-06T19:47:43.627Z,63.33
2019-04-06T19:50:38.200Z,63.42
2019-04-06T19:53:29.255Z,63.43
2019-04-06T19:56:19.149Z,63.54
2019-04-06T19:59:12.838Z,63.64
2019-04-06T20:02:03.598Z,63.72
2019-04-06T20:04:54.776Z,63.81
2019-04-06T20:07:47.128Z,63.86
2019-04-06T20:10:39.623Z,63.94
2019-04-06T20:13:35.172Z,63.95
2019-04-06T20:16:26.716Z,64.01
2019-04-06T20:19:16.265Z,64.12
2019-04-06T20:22:06.444Z,64.17
2019-04-06T20:24:59.343Z,64.26
2019-04-06T20:27:52.289Z,64.26
2019-04-06T20:30:44.712Z,64.30
2019-04-06T20:33:48.405Z,64.38
2019-04-06T20:36:31.800Z,64.44
2019-04-06T20:39:24.145Z,64.50
2019-04-06T20:42:15.577Z,64.58
2019-04-06T20:45:07.090Z,64.57
2019-04-06T20:48:00.773Z,64.70
2019-04-06T20:50:51.077Z,64.74
2019-04-06T20:53:44.169Z,64.81
2019-04-06T20:56:34.271Z,64.85
2019-04-06T20:59:28.339Z,64.75
2019-04-06T21:02:19.818Z,64.97
2019-04-06T21:05:11.363Z,64.93
2019-04-06T21:08:01.336Z,64.94
2019-04-06T21:10:53.300Z,64.91
2019-04-06T21:13:52.833Z,65.00
2019-04-06T21:16:42.509Z,65.08
2019-04-06T21:19:33.977Z,65.09
2019-04-06T21:22:24.956Z,65.18
2019-04-06T21:25:16.555Z,65.24
2019-04-06T21:28:06.666Z,65.24
2019-04-06T21:30:56.470Z,65.30
2019-04-06T21:33:47.388Z,65.37
2019-04-06T21:36:38.022Z,65.37
2019-04-06T21:39:27.908Z,65.37
2019-04-06T21:42:18.264Z,65.39
2019-04-06T21:45:11.356Z,65.46
2019-04-06T21:48:00.796Z,65.52
2019-04-06T21:50:53.435Z,65.56
2019-04-06T21:53:48.001Z,65.54
2019-04-06T21:56:39.747Z,65.58
2019-04-06T21:59:30.409Z,65.56
2019-04-06T22:02:20.131Z,65.60
2019-04-06T22:05:10.289Z,65.58
2019-04-06T22:08:01.322Z,65.66
2019-04-06T22:10:50.906Z,65.63
2019-04-06T22:13:40.176Z,65.79
2019-04-06T22:16:30.473Z,65.68
2019-04-06T22:19:20.239Z,65.67
2019-04-06T22:22:10.219Z,65.75
2019-04-06T22:24:59.770Z,65.81
2019-04-06T22:27:50.617Z,65.80
2019-04-06T22:30:40.914Z,65.90
2019-04-06T22:33:35.791Z,65.86
2019-04-06T22:36:24.776Z,65.95
2019-04-06T22:39:14.468Z,65.93
2019-04-06T22:42:06.196Z,65.97
2019-04-06T22:44:56.037Z,65.94
2019-04-06T22:47:46.293Z,65.92
2019-04-06T22:50:36.558Z,65.98
2019-04-06T22:53:25.879Z,65.98
2019-04-06T22:56:15.896Z,66.06
2019-04-06T22:59:07.463Z,66.16
2019-04-06T23:01:57.267Z,66.13
2019-04-06T23:04:57.600Z,66.21
2019-04-06T23:07:46.779Z,66.21
2019-04-06T23:10:37.293Z,66.31
2019-04-06T23:13:26.941Z,66.29
2019-04-06T23:16:17.035Z,66.31
2019-04-06T23:19:06.383Z,66.24
2019-04-06T23:21:55.720Z,66.30
2019-04-06T23:24:45.446Z,66.37
2019-04-06T23:27:35.322Z,66.24
2019-04-06T23:30:24.921Z,66.26
2019-04-06T23:33:14.285Z,66.37
2019-04-06T23:36:03.844Z,66.36
2019-04-06T23:38:53.237Z,66.31
2019-04-06T23:41:42.745Z,66.38
2019-04-06T23:44:33.012Z,66.38
2019-04-06T23:47:22.043Z,66.29
2019-04-06T23:50:11.368Z,66.38
2019-04-06T23:53:01.368Z,66.24
2019-04-06T23:55:51.780Z,66.27
2019-04-06T23:58:42.080Z,66.34
